createdAt,value
2022-11-23T00:00:08.776Z,0.00
2022-11-23T00:01:08.768Z,0.00
2022-11-23T00:02:08.833Z,0.00
2022-11-23T00:03:08.760Z,0.00
2022-11-23T00:04:08.776Z,0.00
2022-11-23T00:05:08.741Z,0.00
2022-11-23T00:06:08.748Z,0.00
2022-11-23T00:07:08.783Z,0.00
2022-11-23T00:08:08.727Z,0.00
2022-11-23T00:09:08.725Z,0.00
2022-11-23T00:10:08.707Z,0.00
2022-11-23T00:11:08.686Z,0.00
2022-11-23T00:12:08.676Z,0.00
2022-11-23T00:13:08.699Z,0.00
2022-11-23T00:14:08.656Z,0.00
2022-11-23T00:15:08.656Z,0.00
2022-11-23T00:16:08.658Z,0.00
2022-11-23T00:17:08.635Z,0.00
2022-11-23T00:18:08.648Z,0.00
2022-11-23T00:19:08.634Z,0.00
2022-11-23T00:20:08.622Z,0.00
2022-11-23T00:21:08.617Z,0.00
2022-11-23T00:22:08.604Z,0.00
2022-11-23T00:23:08.664Z,0.00
2022-11-23T00:24:08.596Z,0.00
2022-11-23T00:25:08.646Z,0.00
2022-11-23T00:26:08.587Z,0.00
2022-11-23T00:27:08.584Z,0.00
2022-11-23T00:28:08.584Z,0.00
2022-11-23T00:29:09.451Z,0.00
2022-11-23T00:30:08.553Z,0.00
2022-11-23T00:31:08.553Z,0.00
2022-11-23T00:32:08.540Z,0.00
2022-11-23T00:33:08.563Z,0.00
2022-11-23T00:34:08.530Z,0.00
2022-11-23T00:35:08.525Z,0.00
2022-11-23T00:36:08.512Z,0.00
2022-11-23T00:37:08.571Z,0.00
2022-11-23T00:38:08.532Z,0.00
2022-11-23T00:39:08.505Z,0.00
2022-11-23T00:40:08.489Z,0.00
2022-11-23T00:41:08.500Z,0.00
2022-11-23T00:42:09.389Z,0.00
2022-11-23T00:43:08.491Z,0.00
2022-11-23T00:44:08.460Z,0.00
2022-11-23T00:45:08.470Z,0.00
2022-11-23T00:46:08.542Z,0.00
2022-11-23T00:47:08.450Z,0.00
2022-11-23T00:48:08.498Z,0.00
2022-11-23T00:49:08.429Z,0.00
2022-11-23T00:50:08.428Z,0.00
2022-11-23T00:51:08.781Z,0.00
2022-11-23T00:52:08.429Z,0.00
2022-11-23T00:53:08.836Z,0.00
2022-11-23T00:54:08.839Z,0.00
2022-11-23T00:55:09.004Z,0.00
2022-11-23T00:56:09.007Z,0.00
2022-11-23T00:57:09.030Z,0.00
2022-11-23T00:58:08.396Z,0.00
2022-11-23T00:59:08.425Z,0.00
2022-11-23T01:00:08.427Z,0.00
2022-11-23T01:01:08.472Z,0.00
2022-11-23T01:02:08.449Z,0.00
2022-11-23T01:03:08.498Z,0.00
2022-11-23T01:04:08.503Z,0.00
2022-11-23T01:05:08.665Z,0.00
2022-11-23T01:06:08.684Z,0.00
2022-11-23T01:07:08.403Z,0.00
2022-11-23T01:08:08.685Z,0.00
2022-11-23T01:09:08.747Z,0.00
2022-11-23T01:10:08.799Z,0.00
2022-11-23T01:11:08.805Z,0.00
2022-11-23T01:12:08.844Z,0.00
2022-11-23T01:13:08.924Z,0.00
2022-11-23T01:14:08.253Z,0.00
2022-11-23T01:15:08.878Z,0.00
2022-11-23T01:16:08.985Z,0.00
2022-11-23T01:17:08.372Z,0.00
2022-11-23T01:18:09.164Z,0.00
2022-11-23T01:19:09.173Z,0.00
2022-11-23T01:20:08.613Z,0.00
2022-11-23T01:21:08.222Z,0.00
2022-11-23T01:22:08.211Z,0.00
2022-11-23T01:23:08.363Z,0.00
2022-11-23T01:24:08.377Z,0.00
2022-11-23T01:25:08.201Z,0.00
2022-11-23T01:26:08.196Z,0.00
2022-11-23T01:27:08.192Z,0.00
2022-11-23T01:28:08.211Z,0.00
2022-11-23T01:29:08.203Z,0.00
2022-11-23T01:30:08.220Z,0.00
2022-11-23T01:31:08.232Z,0.00
2022-11-23T01:32:08.228Z,0.00
2022-11-23T01:33:08.250Z,0.00
2022-11-23T01:34:08.282Z,0.00
2022-11-23T01:35:08.250Z,0.00
2022-11-23T01:36:08.262Z,0.00
2022-11-23T01:37:08.260Z,0.00
2022-11-23T01:38:08.258Z,0.00
2022-11-23T01:39:08.136Z,0.00
2022-11-23T01:40:08.269Z,0.00
2022-11-23T01:41:08.291Z,0.00
2022-11-23T01:42:08.069Z,0.00
2022-11-23T01:43:08.365Z,0.00
2022-11-23T01:44:08.369Z,0.00
2022-11-23T01:45:08.398Z,0.00
2022-11-23T01:46:08.401Z,0.00
2022-11-23T01:47:08.340Z,0.00
2022-11-23T01:48:08.111Z,0.00
2022-11-23T01:49:08.397Z,0.00
2022-11-23T01:50:08.017Z,0.00
2022-11-23T01:51:08.014Z,0.00
2022-11-23T01:52:08.417Z,0.00
2022-11-23T01:53:08.186Z,0.00
2022-11-23T01:54:08.518Z,0.00
2022-11-23T01:55:08.708Z,0.00
2022-11-23T01:56:07.975Z,0.00
2022-11-23T01:57:07.986Z,0.00
2022-11-23T01:58:07.994Z,0.00
2022-11-23T01:59:07.984Z,0.00
2022-11-23T02:00:07.996Z,0.00
2022-11-23T02:01:07.972Z,0.00
2022-11-23T02:02:08.104Z,0.00
2022-11-23T02:03:08.240Z,0.00
2022-11-23T02:04:08.235Z,0.00
2022-11-23T02:05:07.913Z,0.00
2022-11-23T02:06:07.902Z,0.00
2022-11-23T02:07:07.966Z,0.00
2022-11-23T02:08:07.914Z,0.00
2022-11-23T02:09:08.122Z,0.00
2022-11-23T02:10:08.557Z,0.00
2022-11-23T02:11:08.262Z,0.00
2022-11-23T02:12:08.726Z,0.00
2022-11-23T02:14:33.840Z,0.00
2022-11-23T02:15:33.810Z,0.00
2022-11-23T02:16:33.901Z,0.00
2022-11-23T02:17:33.801Z,0.00
2022-11-23T02:18:33.794Z,0.00
2022-11-23T02:19:34.099Z,0.00
2022-11-23T02:20:33.800Z,0.00
2022-11-23T02:21:33.786Z,0.00
2022-11-23T02:22:33.880Z,0.00
2022-11-23T02:23:33.903Z,0.00
2022-11-23T02:24:33.920Z,0.00
2022-11-23T02:25:33.971Z,0.00
2022-11-23T02:26:33.971Z,0.00
2022-11-23T02:27:33.787Z,0.00
2022-11-23T02:28:33.890Z,0.00
2022-11-23T02:29:34.225Z,0.00
2022-11-23T02:30:33.866Z,0.00
2022-11-23T02:31:33.988Z,0.00
2022-11-23T02:32:33.707Z,0.00
2022-11-23T02:33:33.715Z,0.00
2022-11-23T02:34:33.715Z,0.00
2022-11-23T02:35:33.814Z,0.00
2022-11-23T02:36:33.826Z,0.00
2022-11-23T02:37:33.716Z,0.00
2022-11-23T02:38:33.724Z,0.00
2022-11-23T02:39:33.933Z,0.00
2022-11-23T02:40:33.876Z,0.00
2022-11-23T02:41:33.866Z,0.00
2022-11-23T02:42:33.874Z,0.00
2022-11-23T02:43:34.078Z,0.00
2022-11-23T02:44:33.666Z,0.00
2022-11-23T02:45:33.674Z,0.00
2022-11-23T02:46:33.655Z,0.00
2022-11-23T02:47:34.104Z,0.00
2022-11-23T02:48:33.988Z,0.00
2022-11-23T02:49:33.871Z,0.00
2022-11-23T02:50:34.115Z,0.00
2022-11-23T02:51:33.718Z,0.00
2022-11-23T02:52:33.572Z,0.00
2022-11-23T02:53:33.562Z,0.00
2022-11-23T02:54:33.730Z,0.00
2022-11-23T02:55:34.313Z,0.00
2022-11-23T02:56:34.331Z,0.00
2022-11-23T02:57:33.555Z,0.00
2022-11-23T02:58:34.356Z,0.00
2022-11-23T02:59:33.856Z,0.00
2022-11-23T03:00:33.820Z,0.00
2022-11-23T03:01:34.073Z,0.00
2022-11-23T03:02:33.581Z,0.00
2022-11-23T03:03:34.093Z,0.00
2022-11-23T03:04:34.002Z,0.00
2022-11-23T03:05:33.908Z,0.00
2022-11-23T03:06:33.631Z,0.00
2022-11-23T03:07:34.062Z,0.00
2022-11-23T03:08:34.294Z,0.00
2022-11-23T03:09:33.740Z,0.00
2022-11-23T03:10:33.527Z,0.00
2022-11-23T03:11:33.449Z,0.00
2022-11-23T03:12:33.458Z,0.00
2022-11-23T03:13:33.450Z,0.00
2022-11-23T03:14:33.457Z,0.00
2022-11-23T03:15:33.670Z,0.00
2022-11-23T03:16:33.471Z,0.00
2022-11-23T03:17:33.470Z,0.00
2022-11-23T03:18:33.479Z,0.00
2022-11-23T03:19:33.551Z,0.00
2022-11-23T03:20:33.418Z,0.00
2022-11-23T03:21:33.401Z,0.00
2022-11-23T03:22:33.507Z,0.00
2022-11-23T03:23:33.366Z,0.00
2022-11-23T03:24:33.356Z,0.00
2022-11-23T03:25:33.365Z,0.00
2022-11-23T03:26:33.347Z,0.00
2022-11-23T03:27:33.334Z,0.00
2022-11-23T03:28:33.325Z,0.00
2022-11-23T03:29:33.608Z,0.00
2022-11-23T03:30:33.347Z,0.00
2022-11-23T03:31:33.305Z,0.00
2022-11-23T03:32:33.305Z,0.00
2022-11-23T03:33:33.294Z,0.00
2022-11-23T03:34:33.596Z,0.00
2022-11-23T03:35:33.604Z,0.00
2022-11-23T03:36:33.615Z,0.00
2022-11-23T03:37:33.345Z,0.00
2022-11-23T03:38:33.368Z,0.00
2022-11-23T03:39:33.646Z,0.00
2022-11-23T03:40:33.275Z,0.00
2022-11-23T03:41:33.243Z,0.00
2022-11-23T03:42:33.262Z,0.00
2022-11-23T03:43:33.313Z,0.00
2022-11-23T03:44:33.361Z,0.00
2022-11-23T03:45:33.393Z,0.00
2022-11-23T03:46:33.443Z,0.00
2022-11-23T03:47:33.383Z,0.00
2022-11-23T03:48:33.261Z,0.00
2022-11-23T03:49:33.503Z,0.00
2022-11-23T03:50:33.205Z,0.00
2022-11-23T03:51:33.191Z,0.00
2022-11-23T03:52:33.279Z,0.00
2022-11-23T03:53:33.300Z,0.00
2022-11-23T03:54:33.340Z,0.00
2022-11-23T03:55:33.394Z,0.00
2022-11-23T03:56:33.438Z,0.00
2022-11-23T03:57:33.479Z,0.00
2022-11-23T03:58:33.555Z,0.00
2022-11-23T03:59:33.509Z,0.00
2022-11-23T04:00:33.184Z,0.00
2022-11-23T04:01:33.680Z,0.00
2022-11-23T04:02:33.710Z,0.00
2022-11-23T04:03:33.152Z,0.00
2022-11-23T04:04:33.207Z,0.00
2022-11-23T04:05:33.414Z,0.00
2022-11-23T04:06:33.582Z,0.00
2022-11-23T04:07:33.971Z,0.00
2022-11-23T04:08:33.328Z,0.00
2022-11-23T04:09:33.323Z,0.00
2022-11-23T04:10:33.217Z,0.00
2022-11-23T04:11:33.077Z,0.00
2022-11-23T04:12:33.078Z,0.00
2022-11-23T04:13:33.049Z,0.00
2022-11-23T04:14:33.328Z,0.00
2022-11-23T04:15:34.003Z,0.00
2022-11-23T04:16:33.886Z,0.00
2022-11-23T04:17:33.726Z,0.00
2022-11-23T04:18:33.045Z,0.00
2022-11-23T04:19:33.365Z,0.00
2022-11-23T04:20:34.035Z,0.00
2022-11-23T04:21:33.704Z,0.00
2022-11-23T04:22:33.073Z,0.00
2022-11-23T04:23:32.994Z,0.00
2022-11-23T04:24:33.154Z,0.00
2022-11-23T04:25:33.454Z,0.00
2022-11-23T04:26:33.846Z,0.00
2022-11-23T04:27:33.343Z,0.00
2022-11-23T04:28:33.276Z,0.00
2022-11-23T04:29:33.150Z,0.00
2022-11-23T04:30:32.983Z,0.00
2022-11-23T04:31:33.032Z,0.00
2022-11-23T04:32:32.922Z,0.00
2022-11-23T04:33:32.991Z,0.00
2022-11-23T04:34:33.181Z,0.00
2022-11-23T04:35:33.243Z,0.00
2022-11-23T04:36:33.160Z,0.00
2022-11-23T04:37:33.272Z,0.00
2022-11-23T04:38:33.382Z,0.00
2022-11-23T04:39:33.667Z,0.00
2022-11-23T04:40:33.469Z,0.00
2022-11-23T04:41:33.000Z,0.00
2022-11-23T04:42:32.981Z,0.00
2022-11-23T04:43:32.839Z,0.00
2022-11-23T04:44:32.930Z,0.00
2022-11-23T04:45:33.000Z,0.00
2022-11-23T04:46:33.030Z,0.00
2022-11-23T04:47:33.059Z,0.00
2022-11-23T04:48:33.098Z,0.00
2022-11-23T04:49:33.091Z,0.00
2022-11-23T04:50:33.200Z,0.00
2022-11-23T04:51:33.240Z,0.00
2022-11-23T04:52:33.039Z,0.00
2022-11-23T04:53:32.787Z,0.00
2022-11-23T04:54:33.373Z,0.00
2022-11-23T04:55:33.418Z,0.00
2022-11-23T04:56:32.765Z,0.00
2022-11-23T04:57:32.889Z,0.00
2022-11-23T04:58:34.482Z,0.00
2022-11-23T04:59:32.939Z,0.00
2022-11-23T05:00:32.746Z,0.00
2022-11-23T05:01:32.834Z,0.00
2022-11-23T05:02:32.736Z,0.00
2022-11-23T05:03:32.768Z,0.00
2022-11-23T05:04:32.773Z,0.00
2022-11-23T05:05:32.736Z,0.00
2022-11-23T05:06:32.745Z,0.00
2022-11-23T05:07:32.829Z,0.00
2022-11-23T05:08:32.768Z,0.00
2022-11-23T05:09:33.211Z,0.00
2022-11-23T05:10:32.775Z,0.00
2022-11-23T05:11:32.864Z,0.00
2022-11-23T05:12:32.878Z,0.00
2022-11-23T05:13:32.790Z,0.00
2022-11-23T05:14:32.902Z,0.00
2022-11-23T05:15:32.703Z,0.00
2022-11-23T05:16:32.923Z,0.00
2022-11-23T05:17:32.940Z,0.00
2022-11-23T05:18:32.952Z,0.00
2022-11-23T05:19:32.826Z,0.00
2022-11-23T05:20:32.684Z,0.00
2022-11-23T05:21:33.054Z,0.00
2022-11-23T05:22:33.062Z,0.00
2022-11-23T05:23:33.061Z,0.00
2022-11-23T05:24:33.071Z,0.00
2022-11-23T05:25:33.031Z,0.00
2022-11-23T05:26:33.051Z,0.00
2022-11-23T05:27:32.641Z,0.00
2022-11-23T05:28:41.401Z,0.00
2022-11-23T05:29:33.431Z,0.00
2022-11-23T05:30:33.111Z,0.00
2022-11-23T05:31:33.110Z,0.00
2022-11-23T05:32:32.542Z,0.00
2022-11-23T05:33:33.000Z,0.00
2022-11-23T05:34:32.520Z,0.00
2022-11-23T05:35:32.526Z,0.00
2022-11-23T05:36:32.512Z,0.00
2022-11-23T05:37:32.489Z,0.00
2022-11-23T05:38:32.892Z,0.00
2022-11-23T05:39:32.782Z,0.00
2022-11-23T05:40:32.698Z,0.00
2022-11-23T05:41:32.912Z,0.00
2022-11-23T05:42:32.504Z,0.00
2022-11-23T05:43:32.491Z,0.00
2022-11-23T05:44:32.497Z,0.00
2022-11-23T05:45:33.908Z,0.00
2022-11-23T05:46:32.447Z,0.00
2022-11-23T05:47:32.443Z,0.00
2022-11-23T05:48:32.416Z,0.00
2022-11-23T05:49:32.875Z,0.00
2022-11-23T05:50:32.427Z,0.00
2022-11-23T05:51:32.406Z,0.00
2022-11-23T05:52:32.407Z,0.00
2022-11-23T05:53:32.446Z,0.00
2022-11-23T05:54:32.456Z,0.00
2022-11-23T05:55:32.893Z,0.00
2022-11-23T05:56:37.235Z,0.00
2022-11-23T05:57:32.495Z,0.00
2022-11-23T05:58:33.104Z,0.00
2022-11-23T05:59:33.341Z,0.00
2022-11-23T06:00:33.125Z,0.00
2022-11-23T06:01:33.223Z,0.00
2022-11-23T06:02:38.154Z,0.00
2022-11-23T06:03:32.435Z,0.00
2022-11-23T06:04:32.324Z,0.00
2022-11-23T06:05:32.603Z,0.00
2022-11-23T06:06:33.334Z,0.00
2022-11-23T06:07:32.846Z,0.00
2022-11-23T06:08:32.372Z,0.00
2022-11-23T06:09:33.227Z,0.00
2022-11-23T06:10:32.422Z,0.00
2022-11-23T06:11:32.532Z,0.00
2022-11-23T06:12:32.442Z,0.00
2022-11-23T06:13:32.712Z,0.00
2022-11-23T06:14:32.410Z,0.00
2022-11-23T06:15:33.230Z,0.00
2022-11-23T06:16:32.582Z,0.00
2022-11-23T06:17:32.299Z,0.00
2022-11-23T06:18:32.859Z,0.00
2022-11-23T06:19:32.472Z,0.00
2022-11-23T06:20:32.229Z,0.00
2022-11-23T06:21:32.210Z,0.00
2022-11-23T06:22:32.329Z,0.00
2022-11-23T06:23:32.210Z,0.00
2022-11-23T06:24:32.427Z,0.00
2022-11-23T06:25:32.307Z,0.00
2022-11-23T06:26:32.508Z,0.00
2022-11-23T06:27:32.242Z,4.00
2022-11-23T06:28:32.248Z,4.00
2022-11-23T06:29:32.856Z,1.00
2022-11-23T06:30:32.137Z,1.00
2022-11-23T06:31:33.584Z,1.00
2022-11-23T06:32:32.326Z,5.00
2022-11-23T06:33:32.124Z,1.00
2022-11-23T06:34:32.106Z,5.00
2022-11-23T06:35:32.095Z,10.00
2022-11-23T06:36:32.137Z,6.00
2022-11-23T06:37:32.135Z,6.00
2022-11-23T06:38:32.076Z,27.00
2022-11-23T06:39:32.314Z,19.00
2022-11-23T06:40:32.194Z,28.00
2022-11-23T06:41:32.695Z,33.00
2022-11-23T06:42:38.792Z,34.00
2022-11-23T06:43:32.044Z,43.00
2022-11-23T06:44:32.076Z,47.00
2022-11-23T06:45:32.037Z,57.00
2022-11-23T06:46:32.032Z,62.00
2022-11-23T06:47:32.033Z,68.00
2022-11-23T06:48:32.262Z,85.00
2022-11-23T06:49:32.591Z,99.00
2022-11-23T06:50:32.022Z,113.00
2022-11-23T06:51:32.433Z,124.00
2022-11-23T06:52:32.424Z,154.00
2022-11-23T06:53:32.004Z,168.00
2022-11-23T06:54:32.020Z,182.00
2022-11-23T06:55:32.362Z,209.00
2022-11-23T06:56:32.372Z,232.00
2022-11-23T06:57:32.003Z,255.00
2022-11-23T06:58:32.032Z,274.00
2022-11-23T06:59:32.390Z,301.00
2022-11-23T07:00:32.173Z,328.00
2022-11-23T07:01:32.284Z,355.00
2022-11-23T07:02:32.259Z,391.00
2022-11-23T07:03:32.330Z,431.00
2022-11-23T07:04:32.109Z,455.00
2022-11-23T07:05:31.898Z,483.00
2022-11-23T07:06:32.190Z,519.00
2022-11-23T07:07:32.091Z,556.00
2022-11-23T07:08:32.358Z,592.00
2022-11-23T07:09:32.793Z,648.00
2022-11-23T07:10:32.078Z,679.00
2022-11-23T07:11:31.929Z,716.00
2022-11-23T07:12:32.236Z,754.00
2022-11-23T07:13:32.603Z,802.00
2022-11-23T07:14:32.548Z,862.00
2022-11-23T07:15:32.126Z,880.00
2022-11-23T07:16:31.875Z,905.00
2022-11-23T07:17:31.971Z,945.00
2022-11-23T07:18:32.687Z,979.00
2022-11-23T07:19:33.076Z,1025.00
2022-11-23T07:20:32.155Z,1077.00
2022-11-23T07:21:31.814Z,1123.00
2022-11-23T07:22:32.727Z,1143.00
2022-11-23T07:23:32.331Z,1177.00
2022-11-23T07:24:38.709Z,1219.00
2022-11-23T07:25:32.416Z,1243.00
2022-11-23T07:26:31.804Z,1296.00
2022-11-23T07:27:31.854Z,1333.00
2022-11-23T07:28:32.123Z,1333.00
2022-11-23T07:29:32.696Z,1352.00
2022-11-23T07:30:32.173Z,1380.00
2022-11-23T07:31:32.593Z,1422.00
2022-11-23T07:32:31.852Z,1451.00
2022-11-23T07:33:31.724Z,1527.00
2022-11-23T07:34:31.714Z,1655.00
2022-11-23T07:35:31.815Z,1644.00
2022-11-23T07:36:31.716Z,1432.00
2022-11-23T07:37:31.783Z,1617.00
2022-11-23T07:38:31.703Z,1669.00
2022-11-23T07:39:55.675Z,1790.00
2022-11-23T07:40:31.701Z,2181.00
2022-11-23T07:41:31.702Z,1868.00
2022-11-23T07:42:35.759Z,1723.00
2022-11-23T07:43:31.660Z,1813.00
2022-11-23T07:44:31.710Z,1663.00
2022-11-23T07:45:31.742Z,1886.00
2022-11-23T07:46:31.823Z,2219.00
2022-11-23T07:47:31.865Z,2156.00
2022-11-23T07:48:36.144Z,2284.00
2022-11-23T07:49:32.035Z,2543.00
2022-11-23T07:50:31.799Z,2282.00
2022-11-23T07:51:31.931Z,2127.00
2022-11-23T07:52:31.777Z,2104.00
2022-11-23T07:53:31.919Z,2103.00
2022-11-23T07:54:31.939Z,2200.00
2022-11-23T07:55:31.758Z,2341.00
2022-11-23T07:56:31.943Z,2348.00
2022-11-23T07:57:31.587Z,2793.00
2022-11-23T07:58:31.587Z,2574.00
2022-11-23T07:59:32.022Z,2648.00
2022-11-23T08:00:31.956Z,2826.00
2022-11-23T08:01:31.728Z,2517.00
2022-11-23T08:02:32.064Z,3031.00
2022-11-23T08:03:32.116Z,2712.00
2022-11-23T08:04:31.931Z,2643.00
2022-11-23T08:05:32.077Z,2653.00
2022-11-23T08:06:31.567Z,2723.00
2022-11-23T08:07:31.514Z,3214.00
2022-11-23T08:08:31.509Z,3018.00
2022-11-23T08:09:31.546Z,3015.00
2022-11-23T08:10:31.478Z,3109.00
2022-11-23T08:11:31.480Z,4046.00
2022-11-23T08:12:31.504Z,4014.00
2022-11-23T08:14:57.611Z,0.00
2022-11-23T08:15:57.653Z,2823.00
2022-11-23T08:16:57.411Z,2845.00
2022-11-23T08:17:58.072Z,2834.00
2022-11-23T08:18:57.419Z,2816.00
2022-11-23T08:19:57.389Z,2810.00
2022-11-23T08:20:57.392Z,2816.00
2022-11-23T08:21:57.372Z,2814.00
2022-11-23T08:22:57.387Z,2823.00
2022-11-23T08:23:57.418Z,2840.00
2022-11-23T08:24:57.377Z,2849.00
2022-11-23T08:25:57.349Z,2849.00
2022-11-23T08:26:57.350Z,2861.00
2022-11-23T08:27:57.368Z,2874.00
2022-11-23T08:28:57.379Z,2904.00
2022-11-23T08:29:57.389Z,2931.00
2022-11-23T08:30:57.407Z,2948.00
2022-11-23T08:31:57.371Z,2960.00
2022-11-23T08:32:57.346Z,2970.00
2022-11-23T08:34:01.798Z,2984.00
2022-11-23T08:34:57.327Z,3001.00
2022-11-23T08:35:57.269Z,3013.00
2022-11-23T08:36:57.493Z,3025.00
2022-11-23T08:37:57.253Z,3018.00
2022-11-23T08:38:57.536Z,3037.00
2022-11-23T08:39:57.238Z,3030.00
2022-11-23T08:40:57.544Z,3047.00
2022-11-23T08:41:57.556Z,3060.00
2022-11-23T08:42:57.225Z,3075.00
2022-11-23T08:43:57.237Z,3089.00
2022-11-23T08:44:57.585Z,3114.00
2022-11-23T08:46:03.260Z,3131.00
2022-11-23T08:46:57.314Z,3179.00
2022-11-23T08:47:57.195Z,3214.00
2022-11-23T08:48:57.205Z,3249.00
2022-11-23T08:49:57.175Z,3264.00
2022-11-23T08:50:57.294Z,3271.00
2022-11-23T08:51:57.175Z,3273.00
2022-11-23T08:52:57.174Z,3268.00
2022-11-23T08:53:57.181Z,3301.00
2022-11-23T08:54:57.144Z,3323.00
2022-11-23T08:55:57.146Z,3329.00
2022-11-23T08:56:57.278Z,3354.00
2022-11-23T08:57:57.126Z,3360.00
2022-11-23T08:58:57.677Z,3387.00
2022-11-23T08:59:57.133Z,3412.00
2022-11-23T09:00:57.154Z,3434.00
2022-11-23T09:01:57.143Z,3454.00
2022-11-23T09:02:57.110Z,3465.00
2022-11-23T09:03:57.099Z,3471.00
2022-11-23T09:04:57.101Z,3478.00
2022-11-23T09:05:57.860Z,3483.00
2022-11-23T09:06:57.872Z,3507.00
2022-11-23T09:07:57.895Z,3529.00
2022-11-23T09:08:57.900Z,3545.00
2022-11-23T09:09:57.918Z,3566.00
2022-11-23T09:10:57.900Z,3593.00
2022-11-23T09:11:57.940Z,3609.00
2022-11-23T09:12:57.977Z,3626.00
2022-11-23T09:13:57.970Z,3664.00
2022-11-23T09:14:57.989Z,3679.00
2022-11-23T09:15:57.939Z,3711.00
2022-11-23T09:16:57.840Z,3724.00
2022-11-23T09:17:58.010Z,3744.00
2022-11-23T09:18:57.907Z,3770.00
2022-11-23T09:19:57.809Z,3810.00
2022-11-23T09:20:57.001Z,3847.00
2022-11-23T09:21:56.989Z,3894.00
2022-11-23T09:22:56.967Z,3915.00
2022-11-23T09:23:56.957Z,3964.00
2022-11-23T09:24:56.988Z,3996.00
2022-11-23T09:25:56.936Z,4016.00
2022-11-23T09:26:56.960Z,4048.00
2022-11-23T09:27:56.967Z,4082.00
2022-11-23T09:28:57.064Z,4106.00
2022-11-23T09:29:56.974Z,4148.00
2022-11-23T09:30:56.900Z,4205.00
2022-11-23T09:31:56.986Z,4276.00
2022-11-23T09:32:57.000Z,4294.00
2022-11-23T09:33:56.895Z,4307.00
2022-11-23T09:34:56.914Z,4304.00
2022-11-23T09:35:56.855Z,4446.00
2022-11-23T09:36:56.870Z,4644.00
2022-11-23T09:37:56.843Z,5037.00
2022-11-23T09:38:57.608Z,5347.00
2022-11-23T09:39:56.852Z,5842.00
2022-11-23T09:40:57.859Z,6133.00
2022-11-23T09:41:56.821Z,6581.00
2022-11-23T09:42:56.813Z,6986.00
2022-11-23T09:43:56.809Z,6808.00
2022-11-23T09:44:57.683Z,6611.00
2022-11-23T09:45:57.631Z,6588.00
2022-11-23T09:46:56.873Z,6769.00
2022-11-23T09:47:56.911Z,6587.00
2022-11-23T09:48:57.533Z,6328.00
2022-11-23T09:49:56.783Z,6019.00
2022-11-23T09:50:56.772Z,5975.00
2022-11-23T09:51:56.752Z,6180.00
2022-11-23T09:52:56.741Z,5561.00
2022-11-23T09:53:56.745Z,5884.00
2022-11-23T09:54:56.829Z,6360.00
2022-11-23T09:55:56.735Z,5345.00
2022-11-23T09:57:01.432Z,5857.00
2022-11-23T09:57:57.740Z,6369.00
2022-11-23T09:58:57.650Z,5691.00
2022-11-23T09:59:57.551Z,5498.00
2022-11-23T10:00:56.771Z,5723.00
2022-11-23T10:01:56.805Z,5539.00
2022-11-23T10:02:56.700Z,5170.00
2022-11-23T10:03:56.712Z,5169.00
2022-11-23T10:04:56.790Z,5118.00
2022-11-23T10:05:56.661Z,5003.00
2022-11-23T10:06:56.649Z,5106.00
2022-11-23T10:07:56.639Z,5115.00
2022-11-23T10:08:56.657Z,5681.00
2022-11-23T10:09:56.649Z,5926.00
2022-11-23T10:10:56.628Z,6367.00
2022-11-23T10:11:56.617Z,6209.00
2022-11-23T10:12:56.619Z,6178.00
2022-11-23T10:13:56.601Z,6074.00
2022-11-23T10:14:56.619Z,6381.00
2022-11-23T10:15:56.596Z,6548.00
2022-11-23T10:16:56.586Z,6795.00
2022-11-23T10:17:56.577Z,5644.00
2022-11-23T10:18:56.578Z,6622.00
2022-11-23T10:19:56.583Z,5798.00
2022-11-23T10:20:56.560Z,6491.00
2022-11-23T10:21:56.548Z,7468.00
2022-11-23T10:22:56.545Z,7541.00
2022-11-23T10:23:56.534Z,7589.00
2022-11-23T10:24:56.546Z,6898.00
2022-11-23T10:25:56.516Z,6258.00
2022-11-23T10:26:56.517Z,5827.00
2022-11-23T10:27:56.505Z,5625.00
2022-11-23T10:28:56.502Z,5447.00
2022-11-23T10:29:56.509Z,5502.00
2022-11-23T10:30:56.485Z,5491.00
2022-11-23T10:31:57.477Z,5271.00
2022-11-23T10:32:56.474Z,5104.00
2022-11-23T10:33:56.484Z,5020.00
2022-11-23T10:34:56.494Z,4998.00
2022-11-23T10:35:56.453Z,4993.00
2022-11-23T10:36:56.454Z,5021.00
2022-11-23T10:37:56.452Z,5027.00
2022-11-23T10:38:56.432Z,5029.00
2022-11-23T10:39:56.482Z,5022.00
2022-11-23T10:40:56.423Z,5019.00
2022-11-23T10:41:56.413Z,5016.00
2022-11-23T10:42:56.408Z,5020.00
2022-11-23T10:43:56.556Z,4991.00
2022-11-23T10:44:56.417Z,5002.00
2022-11-23T10:45:59.813Z,5009.00
2022-11-23T10:46:56.373Z,5001.00
2022-11-23T10:47:56.364Z,4979.00
2022-11-23T10:48:56.371Z,4956.00
2022-11-23T10:49:56.373Z,4898.00
2022-11-23T10:50:56.362Z,4846.00
2022-11-23T10:51:56.340Z,4755.00
2022-11-23T10:52:56.353Z,4718.00
2022-11-23T10:53:58.516Z,4661.00
2022-11-23T10:54:56.514Z,4608.00
2022-11-23T10:55:56.334Z,4568.00
2022-11-23T10:56:56.365Z,4653.00
2022-11-23T10:57:56.304Z,4673.00
2022-11-23T10:58:56.304Z,4594.00
2022-11-23T10:59:56.311Z,4533.00
2022-11-23T11:00:56.302Z,4576.00
2022-11-23T11:01:56.301Z,4638.00
2022-11-23T11:02:56.270Z,4656.00
2022-11-23T11:03:56.259Z,4702.00
2022-11-23T11:04:58.705Z,4715.00
2022-11-23T11:06:12.346Z,4762.00
2022-11-23T11:06:56.373Z,4852.00
2022-11-23T11:07:56.231Z,4921.00
2022-11-23T11:08:56.591Z,4971.00
2022-11-23T11:09:56.220Z,4861.00
2022-11-23T11:10:57.137Z,5674.00
2022-11-23T11:11:57.040Z,5336.00
2022-11-23T11:12:56.209Z,5178.00
2022-11-23T11:13:56.206Z,5201.00
2022-11-23T11:14:59.321Z,5677.00
2022-11-23T11:15:56.208Z,5853.00
2022-11-23T11:16:56.185Z,6158.00
2022-11-23T11:17:56.158Z,5954.00
2022-11-23T11:18:56.157Z,6139.00
2022-11-23T11:19:56.258Z,6271.00
2022-11-23T11:20:56.326Z,6358.00
2022-11-23T11:21:56.147Z,5147.00
2022-11-23T11:22:56.135Z,7461.00
2022-11-23T11:23:56.130Z,8536.00
2022-11-23T11:24:56.497Z,8372.00
2022-11-23T11:25:56.126Z,11678.00
2022-11-23T11:26:56.105Z,11064.00
2022-11-23T11:27:56.113Z,8115.00
2022-11-23T11:28:56.094Z,6724.00
2022-11-23T11:29:56.086Z,7191.00
2022-11-23T11:30:56.112Z,8164.00
2022-11-23T11:31:56.069Z,6692.00
2022-11-23T11:32:56.064Z,6552.00
2022-11-23T11:33:56.045Z,7832.00
2022-11-23T11:34:56.046Z,9423.00
2022-11-23T11:35:56.115Z,8552.00
2022-11-23T11:36:56.042Z,8613.00
2022-11-23T11:37:56.033Z,8181.00
2022-11-23T11:39:19.611Z,7735.00
2022-11-23T11:39:56.014Z,9113.00
2022-11-23T11:40:56.023Z,8049.00
2022-11-23T11:41:56.001Z,7644.00
2022-11-23T11:42:55.993Z,7202.00
2022-11-23T11:43:55.983Z,6644.00
2022-11-23T11:44:55.983Z,5910.00
2022-11-23T11:46:55.973Z,4882.00
2022-11-23T11:47:55.956Z,4974.00
2022-11-23T11:48:55.985Z,4698.00
2022-11-23T11:49:55.944Z,5861.00
2022-11-23T11:50:55.943Z,6422.00
2022-11-23T11:51:56.018Z,4408.00
2022-11-23T11:52:55.928Z,8863.00
2022-11-23T11:53:55.928Z,7502.00
2022-11-23T11:54:55.922Z,5670.00
2022-11-23T11:55:55.912Z,5971.00
2022-11-23T11:56:55.930Z,4671.00
2022-11-23T11:57:55.889Z,4234.00
2022-11-23T11:58:55.901Z,4133.00
2022-11-23T11:59:55.893Z,4173.00
2022-11-23T12:00:55.881Z,4395.00
2022-11-23T12:01:55.892Z,4548.00
2022-11-23T12:02:55.876Z,4341.00
2022-11-23T12:03:55.850Z,4135.00
2022-11-23T12:04:55.851Z,4111.00
2022-11-23T12:05:55.840Z,4045.00
2022-11-23T12:06:55.858Z,4027.00
2022-11-23T12:07:55.869Z,4025.00
2022-11-23T12:08:55.826Z,4013.00
2022-11-23T12:09:55.811Z,3979.00
2022-11-23T12:10:55.817Z,3938.00
2022-11-23T12:11:55.820Z,3945.00
2022-11-23T12:12:55.792Z,3974.00
2022-11-23T12:13:55.798Z,3974.00
2022-11-23T12:14:55.779Z,4005.00
2022-11-23T12:15:55.797Z,3998.00
2022-11-23T12:17:24.731Z,4000.00
2022-11-23T12:17:55.758Z,4005.00
2022-11-23T12:18:55.756Z,4009.00
2022-11-23T12:19:55.746Z,3993.00
2022-11-23T12:20:55.755Z,3980.00
2022-11-23T12:21:56.342Z,3966.00
2022-11-23T12:22:55.748Z,3959.00
2022-11-23T12:23:55.743Z,3938.00
2022-11-23T12:24:55.707Z,3930.00
2022-11-23T12:25:55.696Z,4055.00
2022-11-23T12:26:55.713Z,4184.00
2022-11-23T12:27:55.746Z,4038.00
2022-11-23T12:28:55.761Z,3971.00
2022-11-23T12:29:55.785Z,3947.00
2022-11-23T12:30:55.666Z,3935.00
2022-11-23T12:31:55.703Z,3984.00
2022-11-23T12:32:55.644Z,3968.00
2022-11-23T12:33:55.645Z,3963.00
2022-11-23T12:34:55.734Z,3947.00
2022-11-23T12:35:55.635Z,3939.00
2022-11-23T12:36:55.667Z,3944.00
2022-11-23T12:37:55.674Z,3955.00
2022-11-23T12:38:55.675Z,3936.00
2022-11-23T12:39:55.681Z,3923.00
2022-11-23T12:40:55.594Z,3921.00
2022-11-23T12:41:55.614Z,3900.00
2022-11-23T12:42:55.595Z,3915.00
2022-11-23T12:43:55.601Z,3900.00
2022-11-23T12:44:55.612Z,3911.00
2022-11-23T12:45:55.583Z,3931.00
2022-11-23T12:46:55.609Z,3954.00